Terminal Aerodrome Forecast
Issued by NWS

Home | Current Version | Previous Version | Graphics & Text | Print | Product List | Glossary On
Versions: 1 2 3 4 5 6 7 8 9 10 11 12 13 14 15 16 17 18 19 20 21 22 23 24 25 26 27 28 29 30 31 32 33 34 35 36 37
000
FTUS43 KGRB 021000 AAB
TAFRHI
TAF AMD
KRHI 021027Z 0210/0306 26005KT P6SM SCT090 BKN250
      TEMPO 0211/0213 2SM BR
     FM021500 26007KT P6SM VCSH SCT035 BKN090
     FM022200 24003KT P6SM SCT040 SCT090=

USA.gov is the U.S. government's official web portal to all federal, state and local government web resources and services.